Merced Regional Macready Field Merced US
ICAO: KMCE
IATA: MCE
Category: Medium
Scheduled Services: No

Elevation: 155 ft
TransAlt. 18000 ft.

Airport Communications:
NORCAL APP/DEP:120.95
ASOS:132.175
CTAF/UNICOM:122.7

KMCE Zoom In..

Runways:

(A) RW 12 length 5914 ft width 150 ft
---- / hdg 123

(B) RW 30 length 5914 ft width 150 ft
ILS 109.30 / hdg 303

Location; KMCE
Day. 24 / Time. 01.53 Zulu
* Altimeter: 30.22
* Temperature: 09° c. 48.2°f.
* Wind from: 000° Speed 00 kn.
Dewpoint: 07° c.
Visibility: 6 Statute Miles.
Clouds: Clear (automated report).
Conditions: Haze.

KMCE 240153Z AUTO 00000KT 6SM HZ CLR 09/07 A3022 RMK AO2 SLP233 T00940067


Wind - Calm.

YouTube Music Video
 
jpsmedia.com for Web Design  worldairports.se 2018   terms of use